Time;durP1;ratioP1;P1;durP2;ratioP2;P2;SDS_P1;SDS_P2;PMS_P1;PMS_P2;Temp;Humidity;BMP_temperature;BMP_pressure;BME280_temperature;BME280_humidity;BME280_pressure;Samples;Min_cycle;Max_cycle;Signal;HPM_P1;HPM_P2
2021/03/28 00:02:31;;;;;;;10.60;2.08;;;5.50;75.40;;;;;;5039061;28;20123;-76
2021/03/28 00:05:09;;;;;;;6.93;1.70;;;5.50;75.80;;;;;;5047837;28;20407;-76
2021/03/28 00:07:54;;;;;;;5.95;1.98;;;5.60;75.90;;;;;;5041122;28;20032;-76
2021/03/28 00:10:37;;;;;;;9.48;2.05;;;5.60;75.70;;;;;;5035943;28;20041;-76
2021/03/28 00:13:13;;;;;;;8.55;2.53;;;5.70;76.00;;;;;;5051171;28;20496;-76
2021/03/28 00:15:46;;;;;;;4.55;1.50;;;5.70;76.20;;;;;;5049601;28;20030;-76
2021/03/28 00:18:25;;;;;;;9.38;2.17;;;5.70;76.60;;;;;;5007625;28;20041;-76
2021/03/28 00:21:02;;;;;;;7.00;1.08;;;5.80;76.80;;;;;;5044073;28;20056;-76
2021/03/28 00:23:28;;;;;;;2.08;1.20;;;5.80;77.30;;;;;;5022884;28;20464;-76
2021/03/28 00:25:58;;;;;;;2.50;0.90;;;5.80;77.40;;;;;;5033642;28;20087;-76
2021/03/28 00:28:50;;;;;;;5.28;1.95;;;5.90;77.70;;;;;;5049867;28;20116;-76
2021/03/28 00:31:15;;;;;;;7.03;2.10;;;5.90;77.80;;;;;;5029419;28;20500;-76
2021/03/28 00:33:43;;;;;;;10.27;2.55;;;6.00;77.70;;;;;;5054079;28;20183;-76
2021/03/28 00:36:10;;;;;;;4.63;2.13;;;5.90;78.00;;;;;;5023500;28;20084;-76
2021/03/28 00:38:39;;;;;;;4.90;1.60;;;6.00;78.20;;;;;;5052514;28;20476;-76
2021/03/28 00:41:15;;;;;;;0.63;0.63;;;6.00;78.20;;;;;;5057186;28;20388;-76
2021/03/28 00:43:52;;;;;;;10.13;2.65;;;6.00;78.30;;;;;;5061228;28;20154;-76
2021/03/28 00:46:38;;;;;;;8.82;3.15;;;6.00;78.30;;;;;;5063555;28;20033;-76
2021/03/28 00:49:04;;;;;;;10.82;2.88;;;6.00;78.40;;;;;;5058627;28;20037;-76
2021/03/28 00:51:29;;;;;;;9.68;2.50;;;6.00;79.20;;;;;;5045134;28;20388;-76
2021/03/28 00:54:11;;;;;;;11.30;3.38;;;6.00;78.70;;;;;;5024083;28;20040;-75
2021/03/28 00:56:45;;;;;;;9.23;3.00;;;6.00;78.80;;;;;;5021389;28;20029;-76
2021/03/28 00:59:53;;;;;;;6.95;2.83;;;5.90;79.00;;;;;;5040510;28;20033;-75
2021/03/28 01:02:32;;;;;;;8.13;2.05;;;5.90;79.30;;;;;;5015528;28;20110;-75
2021/03/28 01:05:00;;;;;;;10.50;3.25;;;5.90;79.30;;;;;;5036625;28;20079;-75
2021/03/28 01:07:32;;;;;;;9.75;3.00;;;5.90;79.30;;;;;;5055313;28;20572;-75
2021/03/28 01:10:38;;;;;;;8.35;2.95;;;6.00;79.40;;;;;;5054312;28;20467;-75
2021/03/28 01:13:23;;;;;;;9.38;2.95;;;5.90;79.70;;;;;;5042578;28;20167;-75
2021/03/28 01:16:25;;;;;;;8.23;2.78;;;5.90;79.80;;;;;;5052507;28;20269;-75
2021/03/28 01:18:57;;;;;;;10.23;3.15;;;5.90;79.90;;;;;;5050025;28;20108;-75
2021/03/28 01:21:52;;;;;;;8.57;2.85;;;6.00;80.00;;;;;;5030645;28;20033;-75
2021/03/28 01:24:25;;;;;;;12.40;2.58;;;5.90;79.90;;;;;;5051516;28;20532;-75
2021/03/28 01:27:12;;;;;;;6.55;1.25;;;6.00;79.80;;;;;;5040475;28;20065;-76
2021/03/28 01:29:42;;;;;;;4.55;1.83;;;6.00;79.80;;;;;;5034664;28;20401;-75
2021/03/28 01:32:29;;;;;;;16.13;3.25;;;6.10;79.80;;;;;;5053359;28;20082;-75
2021/03/28 01:35:10;;;;;;;5.88;2.15;;;6.00;79.80;;;;;;5013355;28;20067;-75
2021/03/28 01:38:01;;;;;;;7.18;2.00;;;6.00;79.90;;;;;;5059579;28;20043;-75
2021/03/28 01:40:45;;;;;;;8.95;3.40;;;6.10;80.10;;;;;;5061158;28;20400;-75
2021/03/28 01:43:47;;;;;;;12.45;2.88;;;6.10;80.20;;;;;;5060021;28;20037;-75
2021/03/28 01:46:14;;;;;;;12.80;2.45;;;6.10;80.20;;;;;;5010811;28;20048;-75
2021/03/28 01:48:40;;;;;;;9.32;2.67;;;6.10;80.10;;;;;;5028521;28;20508;-75
2021/03/28 01:51:21;;;;;;;9.02;2.53;;;6.10;80.20;;;;;;5056800;28;20037;-75
2021/03/28 01:54:05;;;;;;;9.27;2.72;;;6.10;80.10;;;;;;5056600;28;20032;-75
2021/03/28 01:56:37;;;;;;;12.02;2.00;;;6.20;80.00;;;;;;5053722;28;20058;-75
2021/03/28 01:59:23;;;;;;;5.72;2.17;;;6.20;80.10;;;;;;5038000;28;20397;-75
2021/03/28 02:01:56;;;;;;;10.63;1.70;;;6.20;80.00;;;;;;5054219;28;20451;-75
2021/03/28 02:04:45;;;;;;;9.88;1.88;;;6.20;80.00;;;;;;5024309;28;20206;-75
2021/03/28 02:07:39;;;;;;;5.13;1.55;;;6.20;80.10;;;;;;5034515;28;20031;-75
2021/03/28 02:10:17;;;;;;;11.63;1.85;;;6.30;80.40;;;;;;5047062;28;20029;-75
2021/03/28 02:12:47;;;;;;;5.88;1.70;;;6.30;80.30;;;;;;5057441;28;20054;-75
2021/03/28 02:15:22;;;;;;;41.55;2.63;;;6.30;80.50;;;;;;5047206;28;20119;-75
2021/03/28 02:18:32;;;;;;;7.40;2.20;;;6.30;80.50;;;;;;5054189;28;20496;-75
2021/03/28 02:21:19;;;;;;;2.83;1.58;;;6.30;80.40;;;;;;5011156;28;20115;-75
2021/03/28 02:23:51;;;;;;;5.80;1.52;;;6.40;80.60;;;;;;5051948;28;20476;-75
2021/03/28 02:26:31;;;;;;;4.80;2.22;;;6.30;80.60;;;;;;5028191;28;20052;-75
2021/03/28 02:29:08;;;;;;;13.90;2.78;;;6.40;80.70;;;;;;5052353;28;20056;-75
2021/03/28 02:32:02;;;;;;;7.63;1.88;;;6.40;80.80;;;;;;5029789;28;20116;-74
2021/03/28 02:34:37;;;;;;;6.93;2.30;;;6.40;80.80;;;;;;5061040;28;20044;-74
2021/03/28 02:37:19;;;;;;;10.65;2.60;;;6.40;80.90;;;;;;5060139;28;20440;-75
2021/03/28 02:39:52;;;;;;;13.02;2.15;;;6.40;80.90;;;;;;5013651;28;20381;-74
2021/03/28 02:42:22;;;;;;;16.15;1.88;;;6.40;80.90;;;;;;5017085;28;20063;-74
2021/03/28 02:44:54;;;;;;;4.90;2.22;;;6.40;81.10;;;;;;5023322;28;20581;-75
2021/03/28 02:47:48;;;;;;;8.45;1.10;;;6.40;81.10;;;;;;5044727;28;20104;-75
2021/03/28 02:50:54;;;;;;;11.88;2.53;;;6.40;81.20;;;;;;5041845;28;20119;-75
2021/03/28 02:53:56;;;;;;;12.55;2.30;;;6.30;81.20;;;;;;5023935;28;20112;-75
2021/03/28 02:56:31;;;;;;;5.97;2.10;;;6.30;81.30;;;;;;5049530;28;20098;-75
2021/03/28 02:59:18;;;;;;;5.18;1.95;;;6.40;81.40;;;;;;5033401;28;20480;-74
2021/03/28 03:02:25;;;;;;;17.25;2.25;;;6.30;81.80;;;;;;5050854;28;20029;-75
2021/03/28 03:05:27;;;;;;;8.45;2.22;;;6.30;81.80;;;;;;4937306;28;20073;-75
2021/03/28 03:08:05;;;;;;;4.78;1.17;;;6.30;81.80;;;;;;5041760;28;20039;-75
2021/03/28 03:10:52;;;;;;;7.75;2.22;;;6.30;82.10;;;;;;5043501;28;20036;-75
2021/03/28 03:13:51;;;;;;;9.93;1.77;;;6.30;82.00;;;;;;5055100;28;20044;-76
2021/03/28 03:16:36;;;;;;;11.18;1.90;;;6.30;82.30;;;;;;5056503;28;20037;-75
2021/03/28 03:19:53;;;;;;;9.40;2.83;;;6.20;82.40;;;;;;5048416;28;20763;-75
2021/03/28 03:22:56;;;;;;;7.37;2.10;;;6.20;82.80;;;;;;5028427;28;20041;-75
2021/03/28 03:25:48;;;;;;;4.22;1.08;;;6.20;83.00;;;;;;5050738;28;20490;-75
2021/03/28 03:28:42;;;;;;;4.05;1.05;;;6.20;83.00;;;;;;5058614;28;20039;-75
2021/03/28 03:31:29;;;;;;;7.10;1.50;;;6.20;83.00;;;;;;5056508;28;20119;-76
2021/03/28 03:34:17;;;;;;;3.95;1.42;;;6.30;83.50;;;;;;5058650;28;20039;-75
2021/03/28 03:36:54;;;;;;;8.48;2.15;;;6.20;83.20;;;;;;5057150;28;20515;-75
2021/03/28 03:40:13;;;;;;;6.75;1.95;;;6.20;83.20;;;;;;5025448;28;20216;-75
2021/03/28 03:42:50;;;;;;;9.95;1.60;;;6.20;83.50;;;;;;4986293;28;20486;-75
2021/03/28 03:45:39;;;;;;;4.82;1.50;;;6.30;83.40;;;;;;5024786;28;20050;-75
2021/03/28 03:48:08;;;;;;;11.10;1.90;;;6.20;83.60;;;;;;5007463;28;20139;-75
2021/03/28 03:51:11;;;;;;;13.73;2.92;;;6.30;83.50;;;;;;5063629;28;20496;-75
2021/03/28 03:53:42;;;;;;;2.75;1.05;;;6.20;83.60;;;;;;5047572;28;20586;-75
2021/03/28 03:56:17;;;;;;;11.35;1.63;;;6.20;83.80;;;;;;5018050;28;20042;-75
2021/03/28 03:59:03;;;;;;;3.72;1.50;;;6.30;83.70;;;;;;5043613;28;20406;-75
2021/03/28 04:01:37;;;;;;;8.13;1.52;;;6.20;83.80;;;;;;5055121;28;20036;-75
2021/03/28 04:04:11;;;;;;;1.50;0.80;;;6.20;83.90;;;;;;5015928;28;20037;-75
2021/03/28 04:06:48;;;;;;;4.68;1.40;;;6.20;84.00;;;;;;5028452;28;20036;-75
2021/03/28 04:09:18;;;;;;;6.30;2.25;;;6.30;84.10;;;;;;5055981;28;20033;-75
2021/03/28 04:12:08;;;;;;;5.78;1.10;;;6.20;84.00;;;;;;5039115;28;20090;-76
2021/03/28 04:14:59;;;;;;;5.07;1.27;;;6.30;83.90;;;;;;5045337;28;20029;-75
2021/03/28 04:17:53;;;;;;;1.20;0.75;;;6.30;83.80;;;;;;5056949;28;20039;-76
2021/03/28 04:20:23;;;;;;;9.75;2.08;;;6.30;84.00;;;;;;5042097;28;20038;-75
2021/03/28 04:23:06;;;;;;;8.70;1.98;;;6.30;83.80;;;;;;5054387;28;20035;-75
2021/03/28 04:25:41;;;;;;;2.47;0.45;;;6.30;83.90;;;;;;5039682;28;20094;-75
2021/03/28 04:28:18;;;;;;;10.90;1.60;;;6.30;84.20;;;;;;5040610;28;20028;-75
2021/03/28 04:30:55;;;;;;;7.85;1.27;;;6.30;84.00;;;;;;5056035;28;20114;-75
2021/03/28 04:33:30;;;;;;;8.77;1.35;;;6.30;84.00;;;;;;5056100;28;20036;-75
2021/03/28 04:36:03;;;;;;;8.88;1.10;;;6.30;84.00;;;;;;5053346;28;20403;-75
2021/03/28 04:38:53;;;;;;;8.65;1.35;;;6.30;84.00;;;;;;5037263;28;20034;-76
2021/03/28 04:41:47;;;;;;;7.60;1.05;;;6.20;84.60;;;;;;5052551;28;20488;-75
2021/03/28 04:44:41;;;;;;;5.13;1.35;;;6.30;84.20;;;;;;5049363;28;20037;-75
2021/03/28 04:47:17;;;;;;;2.75;1.70;;;6.30;84.00;;;;;;5049907;28;20036;-75
2021/03/28 04:49:57;;;;;;;6.53;1.73;;;6.40;83.90;;;;;;5031946;28;20384;-75
2021/03/28 04:52:47;;;;;;;3.22;1.02;;;6.30;84.00;;;;;;5020412;28;20034;-75
2021/03/28 04:55:34;;;;;;;4.55;1.75;;;6.30;84.10;;;;;;5050219;28;20053;-75
2021/03/28 04:58:28;;;;;;;3.13;1.05;;;6.40;84.00;;;;;;5050252;28;20053;-75
2021/03/28 05:01:19;;;;;;;8.13;1.73;;;6.50;83.90;;;;;;5051150;28;20028;-74
2021/03/28 05:03:50;;;;;;;10.10;1.65;;;6.50;83.80;;;;;;5016878;28;20038;-75
2021/03/28 05:06:22;;;;;;;10.00;1.77;;;6.50;84.00;;;;;;5047319;28;20036;-74
2021/03/28 05:08:54;;;;;;;7.60;1.92;;;6.50;84.00;;;;;;5051237;28;20048;-74
2021/03/28 05:11:42;;;;;;;2.63;0.93;;;6.50;83.90;;;;;;5051277;28;20540;-75
2021/03/28 05:14:41;;;;;;;8.90;1.50;;;6.60;83.70;;;;;;5048120;28;20044;-75
2021/03/28 05:17:25;;;;;;;3.67;1.02;;;6.60;83.60;;;;;;5050538;28;20293;-75
2021/03/28 05:20:10;;;;;;;4.57;1.40;;;6.60;83.70;;;;;;5046855;28;20043;-74
2021/03/28 05:23:00;;;;;;;2.30;1.15;;;6.70;83.70;;;;;;5045561;28;20033;-75
2021/03/28 05:25:33;;;;;;;4.07;1.23;;;6.70;83.70;;;;;;5063305;28;20040;-75
2021/03/28 05:28:36;;;;;;;3.63;0.77;;;6.70;83.60;;;;;;4345285;28;10000186;-74
2021/03/28 05:31:30;;;;;;;7.95;1.75;;;6.70;83.60;;;;;;5044765;28;20049;-75
2021/03/28 05:33:59;;;;;;;4.60;1.35;;;6.70;83.60;;;;;;5055721;28;20093;-74
2021/03/28 05:36:52;;;;;;;5.88;1.50;;;6.70;83.70;;;;;;5045947;28;20041;-74
2021/03/28 05:39:39;;;;;;;1.20;0.52;;;6.70;83.70;;;;;;5048977;28;20056;-75
2021/03/28 05:42:24;;;;;;;7.63;0.98;;;6.80;83.90;;;;;;5048371;28;20311;-74
2021/03/28 05:45:08;;;;;;;6.63;1.85;;;6.80;83.70;;;;;;5026576;28;20040;-75
2021/03/28 05:48:00;;;;;;;6.43;1.13;;;6.80;83.90;;;;;;5050903;28;20384;-74
2021/03/28 05:50:47;;;;;;;8.30;1.23;;;6.80;83.90;;;;;;5047608;28;20024;-74
2021/03/28 05:53:50;;;;;;;5.07;1.35;;;6.80;84.00;;;;;;5032426;28;20500;-74
2021/03/28 05:56:46;;;;;;;4.45;1.13;;;6.80;83.80;;;;;;5053881;28;20074;-75
2021/03/28 05:59:12;;;;;;;6.63;1.08;;;6.90;83.90;;;;;;5052512;28;20652;-74
2021/03/28 06:02:15;;;;;;;2.40;1.13;;;6.90;83.80;;;;;;5055985;28;20212;-74
2021/03/28 06:05:05;;;;;;;7.95;2.20;;;6.90;83.90;;;;;;4699351;28;9999793;-74
2021/03/28 06:08:08;;;;;;;7.55;1.55;;;6.90;83.70;;;;;;5049393;28;20124;-74
2021/03/28 06:10:46;;;;;;;0.73;0.57;;;6.90;83.80;;;;;;5050488;28;20033;-75
2021/03/28 06:13:44;;;;;;;8.60;1.63;;;7.00;83.60;;;;;;5055383;28;20075;-74
2021/03/28 06:16:39;;;;;;;0.38;0.30;;;7.00;83.70;;;;;;5052950;28;20637;-74
2021/03/28 06:19:34;;;;;;;5.20;1.23;;;7.00;83.50;;;;;;5044696;28;20044;-75
2021/03/28 06:22:19;;;;;;;6.13;1.20;;;7.10;83.50;;;;;;5050728;28;20095;-74
2021/03/28 06:25:09;;;;;;;6.93;1.55;;;7.10;83.50;;;;;;5056677;28;20056;-75
2021/03/28 06:27:59;;;;;;;5.93;1.23;;;7.20;83.40;;;;;;5038729;28;20030;-75
2021/03/28 06:30:42;;;;;;;5.45;1.42;;;7.20;83.30;;;;;;5043029;28;20049;-75
2021/03/28 06:33:23;;;;;;;3.13;1.23;;;7.20;83.40;;;;;;5050070;28;20115;-74
2021/03/28 06:36:12;;;;;;;6.57;1.30;;;7.30;83.20;;;;;;5047807;28;20025;-74
2021/03/28 06:38:52;;;;;;;9.23;1.63;;;7.30;83.20;;;;;;5046794;28;20481;-74
2021/03/28 06:41:30;;;;;;;5.82;1.23;;;7.40;83.10;;;;;;5045709;28;20112;-75
2021/03/28 06:44:22;;;;;;;16.40;1.73;;;7.40;83.10;;;;;;5050236;28;20045;-75
2021/03/28 06:46:53;;;;;;;8.10;1.70;;;7.50;83.20;;;;;;5047150;28;20474;-75
2021/03/28 06:49:51;;;;;;;6.90;1.35;;;7.50;83.00;;;;;;5054860;28;20044;-75
2021/03/28 06:52:54;;;;;;;4.07;1.17;;;7.50;83.10;;;;;;5011111;28;20047;-74
2021/03/28 06:55:26;;;;;;;2.45;0.57;;;7.50;82.90;;;;;;5053244;28;20076;-75
2021/03/28 06:58:10;;;;;;;3.65;1.15;;;7.60;83.10;;;;;;5040992;28;20039;-74
2021/03/28 07:00:57;;;;;;;5.50;1.05;;;7.60;83.00;;;;;;5045594;28;20040;-75
2021/03/28 07:03:24;;;;;;;6.85;1.67;;;7.60;83.00;;;;;;5051672;28;20038;-75
2021/03/28 07:06:01;;;;;;;6.72;1.55;;;7.70;83.20;;;;;;5051612;28;20055;-75
2021/03/28 07:08:48;;;;;;;9.85;1.40;;;7.70;83.00;;;;;;5047838;28;20032;-74
2021/03/28 07:11:31;;;;;;;1.90;0.95;;;7.80;83.10;;;;;;5054551;28;20449;-75
2021/03/28 07:14:22;;;;;;;8.40;1.55;;;7.80;82.90;;;;;;5048993;28;20037;-75
2021/03/28 07:17:18;;;;;;;4.10;1.40;;;7.90;83.20;;;;;;5049036;28;20036;-75
2021/03/28 07:20:08;;;;;;;4.50;1.00;;;8.00;83.00;;;;;;5043740;28;20186;-75
2021/03/28 07:23:06;;;;;;;5.43;2.15;;;8.00;82.80;;;;;;5036855;28;20039;-75
2021/03/28 07:25:40;;;;;;;4.82;1.80;;;8.00;82.80;;;;;;5049887;28;20393;-75
2021/03/28 07:28:35;;;;;;;4.00;1.02;;;8.10;82.70;;;;;;5046299;28;20120;-75
2021/03/28 07:31:16;;;;;;;3.65;1.33;;;8.10;82.40;;;;;;5020297;28;20121;-75
2021/03/28 07:34:20;;;;;;;7.93;1.77;;;8.20;82.40;;;;;;5043544;28;20029;-75
2021/03/28 07:37:25;;;;;;;4.78;1.23;;;8.20;82.30;;;;;;5026075;28;20036;-75
2021/03/28 07:40:17;;;;;;;7.25;1.45;;;8.30;82.20;;;;;;5048399;28;20194;-76
2021/03/28 07:43:05;;;;;;;5.22;1.23;;;8.40;81.90;;;;;;5051732;28;20059;-75
2021/03/28 07:45:41;;;;;;;7.13;0.93;;;8.50;81.70;;;;;;5013751;28;20455;-75
2021/03/28 07:48:18;;;;;;;3.72;0.90;;;8.50;81.60;;;;;;5009338;28;20425;-75
2021/03/28 07:51:01;;;;;;;4.80;1.45;;;8.60;81.50;;;;;;5055241;28;20035;-75
2021/03/28 07:53:51;;;;;;;4.93;1.88;;;8.60;81.30;;;;;;5065685;28;20043;-76
2021/03/28 07:56:28;;;;;;;4.93;1.80;;;8.70;81.40;;;;;;5033428;28;20029;-76
2021/03/28 07:59:08;;;;;;;7.32;1.52;;;8.70;80.90;;;;;;5050969;28;20086;-76
2021/03/28 08:02:09;;;;;;;5.47;2.10;;;8.80;80.80;;;;;;5049602;28;20060;-76
2021/03/28 08:04:38;;;;;;;3.53;2.05;;;8.90;80.80;;;;;;5031913;28;20134;-75
2021/03/28 08:07:16;;;;;;;6.50;1.38;;;8.90;80.50;;;;;;5051773;28;20082;-76
2021/03/28 08:10:06;;;;;;;4.38;0.52;;;9.00;81.20;;;;;;5024895;28;20025;-76
2021/03/28 08:12:44;;;;;;;8.27;1.60;;;9.10;80.30;;;;;;5034842;28;20091;-76
2021/03/28 08:15:22;;;;;;;2.65;1.30;;;9.20;80.40;;;;;;5047117;28;20060;-75
2021/03/28 08:17:52;;;;;;;4.07;1.50;;;9.30;80.00;;;;;;5045244;28;20117;-76
2021/03/28 08:20:30;;;;;;;7.80;1.38;;;9.30;80.00;;;;;;5031093;28;20422;-76
2021/03/28 08:23:05;;;;;;;10.05;1.95;;;9.40;79.90;;;;;;5045884;28;20471;-75
2021/03/28 08:25:58;;;;;;;5.13;1.30;;;9.50;79.70;;;;;;5047920;28;20370;-76
2021/03/28 08:28:38;;;;;;;7.05;1.23;;;9.50;79.60;;;;;;5045741;28;20616;-78
2021/03/28 08:31:06;;;;;;;8.80;1.63;;;9.70;79.30;;;;;;5045020;28;20070;-78
2021/03/28 08:33:43;;;;;;;2.22;1.05;;;9.80;79.80;;;;;;5053942;28;20589;-76
2021/03/28 08:36:24;;;;;;;8.27;1.52;;;9.90;79.00;;;;;;5050092;28;20037;-77
2021/03/28 08:38:55;;;;;;;9.23;0.70;;;10.00;78.00;;;;;;5052594;28;20029;-77
2021/03/28 08:41:54;;;;;;;2.80;1.15;;;10.10;77.80;;;;;;5034937;28;20057;-76
2021/03/28 08:44:34;;;;;;;7.18;2.30;;;10.20;77.60;;;;;;5037246;28;20030;-75
2021/03/28 08:47:56;;;;;;;5.70;1.85;;;10.40;78.20;;;;;;5037527;28;20123;-77
2021/03/28 08:50:39;;;;;;;3.50;0.73;;;10.60;77.50;;;;;;4969667;28;20031;-76
2021/03/28 08:53:33;;;;;;;1.75;1.15;;;10.70;76.80;;;;;;4951648;28;20094;-76
2021/03/28 08:56:23;;;;;;;12.68;1.92;;;10.90;76.50;;;;;;5024903;28;20131;-76
2021/03/28 08:59:22;;;;;;;5.93;1.73;;;10.90;76.30;;;;;;5050032;28;20182;-77
2021/03/28 09:02:03;;;;;;;1.73;0.77;;;11.10;76.50;;;;;;5045617;28;20104;-76
2021/03/28 09:04:46;;;;;;;2.33;1.23;;;11.10;75.70;;;;;;5044637;28;20140;-77
2021/03/28 09:07:34;;;;;;;5.97;1.60;;;11.20;75.60;;;;;;5055409;28;20380;-77
2021/03/28 09:10:21;;;;;;;5.97;1.88;;;11.40;75.70;;;;;;5052167;28;20559;-77
2021/03/28 09:12:47;;;;;;;5.68;1.52;;;11.60;75.30;;;;;;5051567;28;20061;-77
2021/03/28 09:15:32;;;;;;;8.07;1.80;;;11.70;75.10;;;;;;5051631;28;20179;-76
2021/03/28 09:18:06;;;;;;;4.00;1.30;;;12.10;74.50;;;;;;5028041;28;20036;-76
2021/03/28 09:20:53;;;;;;;3.08;1.40;;;12.20;74.50;;;;;;5044156;28;20074;-76
2021/03/28 09:23:41;;;;;;;8.13;1.15;;;12.40;74.10;;;;;;5036749;28;20035;-76
2021/03/28 09:26:24;;;;;;;3.67;1.08;;;12.40;73.80;;;;;;5047210;28;20042;-77
2021/03/28 09:29:02;;;;;;;10.20;1.85;;;12.70;71.80;;;;;;5034130;28;20040;-76
2021/03/28 09:31:31;;;;;;;6.75;1.10;;;12.70;72.60;;;;;;5047316;28;20496;-76
2021/03/28 09:34:20;;;;;;;10.05;1.88;;;12.80;71.30;;;;;;5045420;28;20037;-77
2021/03/28 09:36:56;;;;;;;7.32;1.42;;;12.80;72.20;;;;;;5050952;28;20085;-77
2021/03/28 09:39:27;;;;;;;4.03;1.23;;;12.90;72.10;;;;;;5012866;28;20492;-76
2021/03/28 09:42:13;;;;;;;8.40;1.60;;;12.90;71.80;;;;;;5037173;28;20158;-76
2021/03/28 09:44:53;;;;;;;5.50;1.67;;;13.10;71.60;;;;;;5027305;28;20032;-77
2021/03/28 09:47:37;;;;;;;4.22;0.80;;;13.10;71.60;;;;;;5047101;28;20117;-77
2021/03/28 09:50:20;;;;;;;5.55;1.17;;;13.10;71.10;;;;;;5048131;28;20043;-77
2021/03/28 09:53:19;;;;;;;6.63;2.13;;;13.40;70.50;;;;;;5062066;28;20029;-76
2021/03/28 09:55:47;;;;;;;9.80;1.75;;;13.70;69.80;;;;;;5051009;28;20610;-77
2021/03/28 09:58:33;;;;;;;3.70;0.93;;;13.40;68.80;;;;;;5036575;28;20032;-77
2021/03/28 10:01:10;;;;;;;10.18;1.60;;;13.50;68.70;;;;;;5053271;28;20174;-77
2021/03/28 10:04:11;;;;;;;2.83;0.55;;;13.50;67.30;;;;;;5032078;28;20033;-77
2021/03/28 10:06:37;;;;;;;1.88;0.77;;;13.70;67.00;;;;;;5035891;28;20271;-77
2021/03/28 10:09:19;;;;;;;6.60;1.42;;;13.70;66.40;;;;;;5024288;28;20033;-77
2021/03/28 10:12:18;;;;;;;3.67;0.60;;;13.90;63.60;;;;;;5030648;28;20037;-77
2021/03/28 10:15:03;;;;;;;4.32;0.60;;;14.00;61.60;;;;;;5042191;28;20112;-77
2021/03/28 10:17:44;;;;;;;4.72;1.42;;;14.00;60.90;;;;;;5042861;28;20048;-77
2021/03/28 10:20:18;;;;;;;3.28;1.00;;;14.10;60.60;;;;;;5004653;28;20140;-77
2021/03/28 10:23:05;;;;;;;3.97;0.70;;;14.30;60.00;;;;;;5034700;28;20472;-77
2021/03/28 10:25:46;;;;;;;7.10;1.30;;;14.70;57.90;;;;;;5041524;28;21274;-77
2021/03/28 10:28:49;;;;;;;7.15;0.95;;;14.80;55.60;;;;;;5044528;28;20514;-77
2021/03/28 10:31:19;;;;;;;7.35;1.20;;;15.10;55.20;;;;;;5052186;28;20047;-77
2021/03/28 10:33:58;;;;;;;3.42;0.90;;;15.00;56.40;;;;;;5050258;28;20087;-77
2021/03/28 10:36:51;;;;;;;0.98;0.50;;;15.00;56.60;;;;;;5037906;28;20033;-77
2021/03/28 10:39:37;;;;;;;6.10;1.70;;;15.10;56.40;;;;;;5031701;28;20424;-77
2021/03/28 10:42:21;;;;;;;5.65;1.20;;;15.40;55.20;;;;;;5049217;28;20048;-77
2021/03/28 10:45:30;;;;;;;4.63;1.10;;;15.40;55.30;;;;;;5052477;28;20086;-77
2021/03/28 10:48:02;;;;;;;3.20;0.82;;;15.60;54.70;;;;;;4981141;28;20033;-77
2021/03/28 10:50:50;;;;;;;3.97;0.70;;;15.60;54.40;;;;;;5044534;28;20036;-77
2021/03/28 10:53:30;;;;;;;5.55;0.77;;;15.40;54.40;;;;;;5053279;28;20035;-77
2021/03/28 10:56:41;;;;;;;6.53;1.40;;;15.50;56.00;;;;;;5048535;28;20394;-77
2021/03/28 10:59:44;;;;;;;3.00;0.95;;;15.60;55.90;;;;;;4986277;28;20120;-77
2021/03/28 11:02:28;;;;;;;1.45;0.75;;;15.60;54.20;;;;;;5047828;28;20569;-77
2021/03/28 11:05:31;;;;;;;4.90;1.48;;;15.70;53.80;;;;;;5049219;28;20481;-77
2021/03/28 11:08:27;;;;;;;10.18;1.35;;;15.70;53.50;;;;;;5049103;28;20029;-77
2021/03/28 11:11:26;;;;;;;4.40;1.27;;;15.80;53.80;;;;;;5045933;28;20021;-77
2021/03/28 11:14:09;;;;;;;4.03;0.80;;;15.70;52.40;;;;;;5020869;28;20033;-76
2021/03/28 11:16:58;;;;;;;2.65;1.08;;;15.70;52.20;;;;;;5048787;28;20455;-77
2021/03/28 11:19:45;;;;;;;4.70;1.27;;;15.80;52.50;;;;;;5044616;28;20120;-77
2021/03/28 11:22:16;;;;;;;4.30;1.00;;;15.90;52.40;;;;;;5049823;28;20029;-77
2021/03/28 11:24:51;;;;;;;5.07;1.20;;;15.80;52.70;;;;;;5051990;28;20032;-77
2021/03/28 11:27:38;;;;;;;2.13;0.77;;;15.80;52.10;;;;;;5048544;28;20071;-77
2021/03/28 11:30:26;;;;;;;2.95;0.73;;;15.80;52.30;;;;;;5048397;28;20040;-77
2021/03/28 11:32:54;;;;;;;6.82;1.67;;;15.80;51.70;;;;;;5036120;28;20021;-77
2021/03/28 11:35:37;;;;;;;2.08;0.98;;;15.90;53.10;;;;;;5064799;28;20052;-77
2021/03/28 11:38:26;;;;;;;4.07;1.02;;;16.10;52.10;;;;;;5043428;28;20123;-77
2021/03/28 11:40:53;;;;;;;5.40;1.25;;;16.10;52.50;;;;;;4334282;28;10000844;-76
2021/03/28 11:43:42;;;;;;;3.13;1.20;;;16.10;51.70;;;;;;5022081;28;20037;-76
2021/03/28 11:46:26;;;;;;;4.10;1.23;;;16.00;51.20;;;;;;5030268;28;20068;-77
2021/03/28 11:48:52;;;;;;;5.95;1.58;;;16.20;51.90;;;;;;5045604;28;20029;-77
2021/03/28 11:51:38;;;;;;;3.60;1.52;;;16.10;51.90;;;;;;5044737;28;20052;-78
2021/03/28 11:54:10;;;;;;;3.10;1.08;;;15.90;52.40;;;;;;5033381;28;20531;-78
2021/03/28 11:56:53;;;;;;;9.60;2.20;;;16.00;52.80;;;;;;5045760;28;20413;-78
2021/03/28 11:59:25;;;;;;;2.65;0.70;;;16.10;52.60;;;;;;5044480;28;20345;-78
2021/03/28 12:04:26;;;;;;;2.40;0.65;;;15.80;52.10;;;;;;5046759;28;20423;-78
2021/03/28 12:07:12;;;;;;;4.30;1.17;;;15.60;52.20;;;;;;5025469;28;20068;-78
2021/03/28 12:09:38;;;;;;;4.63;1.00;;;15.70;52.20;;;;;;5033096;28;20480;-78
2021/03/28 12:12:27;;;;;;;6.85;1.35;;;15.90;52.80;;;;;;5010859;28;20044;-78
2021/03/28 12:14:53;;;;;;;4.33;1.10;;;15.90;53.20;;;;;;4669321;28;10000097;-80
2021/03/28 12:17:23;;;;;;;4.88;1.08;;;15.80;52.10;;;;;;5050718;28;20278;-78
2021/03/28 12:19:59;;;;;;;4.65;1.33;;;15.80;52.30;;;;;;5035203;28;20409;-78
2021/03/28 12:22:37;;;;;;;4.25;1.13;;;15.80;52.20;;;;;;5047715;28;20041;-78
2021/03/28 12:25:12;;;;;;;6.32;1.25;;;15.90;51.70;;;;;;5043456;28;20484;-78
2021/03/28 12:27:55;;;;;;;2.03;0.93;;;16.00;51.90;;;;;;5049504;28;20048;-78
2021/03/28 12:30:28;;;;;;;1.65;0.77;;;15.90;52.30;;;;;;5047353;28;20373;-78
2021/03/28 12:32:56;;;;;;;1.98;1.00;;;15.90;52.10;;;;;;5051309;28;20053;-79
2021/03/28 12:35:35;;;;;;;3.10;1.13;;;16.00;51.90;;;;;;5050264;28;20029;-78
2021/03/28 12:38:25;;;;;;;11.05;1.38;;;15.90;51.50;;;;;;5023010;28;20063;-78
2021/03/28 12:41:00;;;;;;;2.97;1.25;;;15.90;51.20;;;;;;5059075;28;20033;-79
2021/03/28 12:43:32;;;;;;;5.13;1.47;;;16.00;51.50;;;;;;5028697;28;20111;-79
2021/03/28 12:45:58;;;;;;;4.38;0.98;;;16.40;51.20;;;;;;5049479;28;20275;-79
2021/03/28 12:48:34;;;;;;;4.97;1.23;;;16.20;51.00;;;;;;5034878;28;20468;-79
2021/03/28 12:51:00;;;;;;;4.32;1.13;;;16.10;51.10;;;;;;5045054;28;20030;-78
2021/03/28 12:53:29;;;;;;;6.25;1.73;;;16.30;50.60;;;;;;5013435;28;20442;-78
2021/03/28 12:55:55;;;;;;;5.35;1.05;;;16.20;50.90;;;;;;5051198;28;20155;-78
2021/03/28 12:58:25;;;;;;;10.00;1.33;;;16.40;51.30;;;;;;5048629;28;20114;-78
2021/03/28 13:01:02;;;;;;;4.32;1.02;;;16.50;51.60;;;;;;5025974;28;20039;-78
2021/03/28 13:03:36;;;;;;;3.97;1.67;;;15.90;50.30;;;;;;5062766;28;20028;-79
2021/03/28 13:06:12;;;;;;;12.63;1.05;;;15.80;50.00;;;;;;5050625;28;20470;-79
2021/03/28 13:08:56;;;;;;;3.17;1.63;;;15.90;50.70;;;;;;5015995;28;20510;-79
2021/03/28 13:11:39;;;;;;;5.47;1.10;;;15.70;50.70;;;;;;5041356;28;20032;-78
2021/03/28 13:14:06;;;;;;;3.17;1.10;;;15.70;51.00;;;;;;5044428;28;20104;-79
2021/03/28 13:16:32;;;;;;;5.28;1.35;;;15.60;50.40;;;;;;5032847;28;20044;-79
2021/03/28 13:18:59;;;;;;;4.80;1.25;;;15.60;50.60;;;;;;5046054;28;20044;-79
2021/03/28 13:21:37;;;;;;;5.93;1.60;;;15.60;51.40;;;;;;5053843;28;20117;-79
2021/03/28 13:24:13;;;;;;;7.97;1.00;;;15.60;51.10;;;;;;5034748;28;20033;-79
2021/03/28 13:27:04;;;;;;;;;;;15.60;50.80;;;;;;5016284;28;20044;-78
2021/03/28 13:29:37;;;;;;;5.15;0.98;;;15.50;50.70;;;;;;5046842;28;20326;-78
2021/03/28 13:32:33;;;;;;;2.08;0.77;;;15.70;51.00;;;;;;5040284;28;20043;-79
2021/03/28 13:35:00;;;;;;;4.25;1.17;;;15.60;50.30;;;;;;5023944;28;20120;-79
2021/03/28 13:37:33;;;;;;;3.13;1.58;;;15.40;50.30;;;;;;5020128;28;20033;-78
2021/03/28 13:40:14;;;;;;;3.47;0.93;;;15.40;50.50;;;;;;5049756;28;20045;-79
2021/03/28 13:42:58;;;;;;;3.20;1.52;;;15.60;50.90;;;;;;5027946;28;20074;-79
2021/03/28 13:45:35;;;;;;;4.75;1.23;;;15.80;52.00;;;;;;5034328;28;20045;-79
2021/03/28 13:48:09;;;;;;;14.90;1.60;;;15.60;50.90;;;;;;5047012;28;20072;-79
2021/03/28 13:50:47;;;;;;;3.67;0.80;;;15.70;50.80;;;;;;5043304;28;20497;-78
2021/03/28 13:53:15;;;;;;;5.25;1.30;;;15.60;50.20;;;;;;5049131;28;20147;-79
2021/03/28 13:55:57;;;;;;;4.72;1.17;;;15.80;51.10;;;;;;5049509;28;20024;-79
2021/03/28 13:58:26;;;;;;;4.63;0.90;;;15.50;50.60;;;;;;5048011;28;20037;-78
2021/03/28 14:01:06;;;;;;;3.38;0.88;;;15.60;50.90;;;;;;5034509;28;20041;-79
2021/03/28 14:03:36;;;;;;;1.55;0.80;;;15.40;50.50;;;;;;5051372;28;20025;-78
2021/03/28 14:06:31;;;;;;;5.82;1.45;;;15.40;50.60;;;;;;5018018;28;20048;-78
2021/03/28 14:09:04;;;;;;;3.80;1.33;;;15.20;50.40;;;;;;5037447;28;20037;-79
2021/03/28 14:11:48;;;;;;;2.47;0.52;;;15.40;50.70;;;;;;5035898;28;20028;-79
2021/03/28 14:14:22;;;;;;;3.50;0.95;;;15.40;51.50;;;;;;5058449;28;20142;-79